This is the latest recevied weather packets stored in our database for station/object CE3RCJ-14. If no packets are shown the sender has not sent any weather packets the latest 10 day(s).
| Time | Temp. | Humidity | Pressure | Rain* | Wind** | Luminosity | Snow |
|---|---|---|---|---|---|---|---|
| 1777954683 | 15.56° C | 40% | 1015.3 hPa | - | - | - | - |
| 1777954114 | 15.56° C | 41% | 1015.4 hPa | - | - | - | - |
| 1777952903 | 15.56° C | 41% | 1015.8 hPa | - | - | - | - |
| 1777952279 | 15° C | 41% | 1016 hPa | - | - | - | - |
| 1777950787 | 15.56° C | 40% | 1016.2 hPa | - | - | - | - |
| 1777948681 | 15.56° C | 40% | 1015.8 hPa | - | - | - | - |
| 1777946271 | 16.11° C | 39% | 1015.8 hPa | - | - | - | - |
| 1777945684 | 16.11° C | 39% | 1015.8 hPa | - | - | - | - |
| 1777945420 | 16.11° C | 39% | 1015.8 hPa | - | - | - | - |
| 1777945084 | 16.11° C | 39% | 1015.7 hPa | - | - | - | - |
| 1777941498 | 16.11° C | 38% | 1015.5 hPa | - | - | - | - |
| 1777940666 | 16.11° C | 38% | 1015.3 hPa | - | - | - | - |
| 1777936709 | 17.22° C | 36% | 1015 hPa | - | - | - | - |
| 1777933404 | 18.33° C | 35% | 1014.4 hPa | - | - | - | - |
| 1777933168 | 18.33° C | 34% | 1014.2 hPa | - | - | - | - |
| 1777927472 | 20° C | 33% | 1013.6 hPa | - | - | - | - |
| 1777926186 | 20° C | 32% | 1013.4 hPa | - | - | - | - |
| 1777925018 | 20° C | 33% | 1013.2 hPa | - | - | - | - |
| 1777921108 | 20° C | 33% | 1013.7 hPa | - | - | - | - |
| 1777919882 | 20° C | 33% | 1013.9 hPa | - | - | - | - |
| 1777919583 | 20° C | 33% | 1014 hPa | - | - | - | - |
| 1777915682 | 20° C | 34% | 1014.6 hPa | - | - | - | - |
| 1777913282 | 19.44° C | 35% | 1015.4 hPa | - | - | - | - |
| 1777912398 | 18.89° C | 35% | 1015.6 hPa | - | - | - | - |
| 1777911782 | 18.89° C | 36% | 1015.8 hPa | - | - | - | - |
* Rain since midnight (hover to see other rain measurements)
** Current wind speed in m/s (hover to see current wind gust speed)